createdAt,value
2023-01-11T00:01:57.524Z,33.80
2023-01-11T00:04:30.544Z,39.40
2023-01-11T00:06:57.601Z,37.80
2023-01-11T00:09:24.420Z,37.60
2023-01-11T00:11:51.101Z,25.90
2023-01-11T00:14:17.805Z,30.90
2023-01-11T00:16:44.544Z,29.70
2023-01-11T00:19:11.372Z,29.70
2023-01-11T00:21:38.090Z,27.50
2023-01-11T00:24:05.458Z,46.60
2023-01-11T00:26:32.131Z,20.00
2023-01-11T00:28:58.824Z,33.70
2023-01-11T00:31:25.722Z,38.20
2023-01-11T00:33:52.659Z,28.50
2023-01-11T00:36:19.470Z,29.40
2023-01-11T00:38:53.962Z,28.40
2023-01-11T00:41:40.846Z,42.30
2023-01-11T00:44:28.577Z,27.10
2023-01-11T00:47:14.184Z,32.20
2023-01-11T00:49:41.113Z,29.80
2023-01-11T00:52:09.720Z,27.30
2023-01-11T00:54:41.170Z,28.70
2023-01-11T00:57:08.386Z,42.40
2023-01-11T00:59:35.947Z,29.60
2023-01-11T01:02:03.272Z,26.60
2023-01-11T01:04:30.047Z,33.20
2023-01-11T01:06:56.808Z,33.20
2023-01-11T01:09:23.484Z,38.30
2023-01-11T01:11:50.160Z,26.80
2023-01-11T01:14:26.037Z,20.50
2023-01-11T01:16:53.723Z,32.70
2023-01-11T01:19:21.544Z,18.80
2023-01-11T01:21:49.436Z,26.00
2023-01-11T01:24:16.150Z,33.80
2023-01-11T01:26:42.895Z,31.60
2023-01-11T01:29:09.639Z,33.60
2023-01-11T01:31:36.348Z,29.40
2023-01-11T01:34:03.073Z,29.00
2023-01-11T01:36:29.729Z,36.10
2023-01-11T01:38:56.478Z,20.50
2023-01-11T01:41:23.180Z,24.90
2023-01-11T01:44:04.147Z,35.20
2023-01-11T01:46:32.670Z,30.70
2023-01-11T01:49:13.562Z,34.30
2023-01-11T01:51:43.455Z,39.20
2023-01-11T01:54:12.944Z,29.20
2023-01-11T01:56:48.840Z,26.90
2023-01-11T01:59:15.771Z,28.40
2023-01-11T02:01:49.033Z,27.80
2023-01-11T02:04:24.706Z,28.30
2023-01-11T02:06:54.542Z,31.20
2023-01-11T02:09:43.777Z,33.80
2023-01-11T02:12:10.447Z,27.00
2023-01-11T02:14:37.386Z,35.10
2023-01-11T02:17:04.218Z,29.90
2023-01-11T02:22:01.901Z,23.00
2023-01-11T02:24:43.077Z,36.70
2023-01-11T02:27:28.215Z,31.40
2023-01-11T02:29:54.857Z,22.70
2023-01-11T02:32:35.395Z,39.00
2023-01-11T02:35:25.338Z,35.20
2023-01-11T02:38:24.536Z,32.20
2023-01-11T02:40:56.370Z,44.50
2023-01-11T02:44:01.260Z,23.30
2023-01-11T02:46:35.055Z,36.40
2023-01-11T02:49:20.827Z,48.50
2023-01-11T02:51:55.136Z,29.30
2023-01-11T02:54:22.478Z,44.50
2023-01-11T02:56:51.737Z,38.80
2023-01-11T02:59:20.997Z,38.50
2023-01-11T03:01:49.189Z,37.80
2023-01-11T03:04:29.940Z,30.10
2023-01-11T03:07:09.003Z,32.70
2023-01-11T03:10:01.635Z,27.80
2023-01-11T03:13:02.786Z,21.60
2023-01-11T03:16:08.771Z,26.40
2023-01-11T03:18:38.531Z,25.00
2023-01-11T03:21:08.157Z,22.30
2023-01-11T03:23:40.967Z,28.40
2023-01-11T03:26:19.949Z,21.90
2023-01-11T03:29:00.660Z,30.90
2023-01-11T03:31:48.668Z,24.70
2023-01-11T03:34:40.247Z,23.30
2023-01-11T03:37:27.664Z,26.10
2023-01-11T03:40:11.310Z,34.60
2023-01-11T03:42:58.604Z,32.60
2023-01-11T03:45:25.306Z,22.50
2023-01-11T03:47:52.140Z,23.20
2023-01-11T03:50:19.068Z,26.40
2023-01-11T03:52:45.765Z,21.30
2023-01-11T03:55:12.652Z,32.30
2023-01-11T03:57:42.597Z,24.30
2023-01-11T04:00:10.167Z,26.70
2023-01-11T04:02:39.997Z,28.00
2023-01-11T04:05:08.112Z,29.70
2023-01-11T04:07:35.173Z,25.00
2023-01-11T04:10:02.029Z,21.50
2023-01-11T04:12:28.702Z,34.40
2023-01-11T04:14:55.392Z,33.90
2023-01-11T04:17:22.101Z,31.20
2023-01-11T04:19:48.881Z,33.10
2023-01-11T04:22:15.735Z,27.50
2023-01-11T04:24:42.546Z,28.30
2023-01-11T04:27:09.404Z,22.80
2023-01-11T04:29:36.093Z,25.50
2023-01-11T04:32:03.780Z,26.60
2023-01-11T04:34:30.468Z,28.50
2023-01-11T04:36:57.151Z,27.10
2023-01-11T04:39:24.135Z,28.00
2023-01-11T04:42:09.811Z,13.70
2023-01-11T04:44:36.549Z,19.80
2023-01-11T04:47:03.272Z,20.80
2023-01-11T04:49:30.108Z,20.50
2023-01-11T04:51:56.791Z,25.50
2023-01-11T04:54:23.554Z,22.70
2023-01-11T04:56:50.247Z,20.30
2023-01-11T04:59:16.926Z,22.00
2023-01-11T05:01:43.627Z,20.70
2023-01-11T05:04:12.621Z,23.50
2023-01-11T05:06:40.167Z,18.90
2023-01-11T05:09:09.319Z,21.20
2023-01-11T05:11:36.100Z,17.80
2023-01-11T05:14:02.813Z,16.10
2023-01-11T05:16:29.554Z,18.50
2023-01-11T05:18:57.993Z,22.50
2023-01-11T05:21:29.498Z,23.10
2023-01-11T05:23:56.251Z,21.90
2023-01-11T05:26:24.626Z,18.40
2023-01-11T05:28:51.784Z,18.10
2023-01-11T05:31:19.029Z,15.90
2023-01-11T05:33:46.207Z,21.60
2023-01-11T05:36:14.556Z,26.80
2023-01-11T05:38:41.488Z,23.80
2023-01-11T05:41:09.292Z,16.50
2023-01-11T05:43:56.256Z,21.10
2023-01-11T05:46:23.148Z,23.30
2023-01-11T05:48:50.085Z,18.70
2023-01-11T05:51:16.946Z,20.30
2023-01-11T05:53:43.716Z,16.90
2023-01-11T05:56:10.372Z,14.30
2023-01-11T05:58:37.233Z,15.40
2023-01-11T06:01:04.055Z,18.80
2023-01-11T06:03:30.787Z,15.70
2023-01-11T06:05:58.806Z,17.00
2023-01-11T06:08:25.748Z,20.00
2023-01-11T06:10:56.153Z,25.90
2023-01-11T06:13:26.768Z,22.20
2023-01-11T06:16:01.656Z,24.70
2023-01-11T06:18:29.482Z,22.40
2023-01-11T06:20:56.328Z,32.40
2023-01-11T06:23:23.292Z,25.70
2023-01-11T06:25:50.218Z,18.20
2023-01-11T06:28:17.067Z,25.80
2023-01-11T06:30:43.819Z,30.60
2023-01-11T06:33:10.637Z,31.00
2023-01-11T06:35:41.302Z,24.80
2023-01-11T06:38:09.578Z,21.20
2023-01-11T06:40:36.816Z,16.20
2023-01-11T06:43:03.603Z,27.60
2023-01-11T06:45:30.771Z,20.20
2023-01-11T06:47:57.787Z,23.90
2023-01-11T06:50:24.582Z,19.10
2023-01-11T06:52:58.284Z,23.50
2023-01-11T06:55:25.974Z,20.00
2023-01-11T06:57:53.113Z,18.40
2023-01-11T07:00:20.225Z,19.80
2023-01-11T07:02:47.006Z,32.20
2023-01-11T07:05:13.825Z,25.80
2023-01-11T07:07:40.834Z,43.20
2023-01-11T07:10:09.272Z,57.40
2023-01-11T07:12:36.626Z,39.60
2023-01-11T07:15:05.062Z,34.50
2023-01-11T07:17:31.810Z,27.10
2023-01-11T07:19:58.587Z,27.90
2023-01-11T07:22:25.595Z,24.80
2023-01-11T07:24:52.303Z,25.70
2023-01-11T07:27:21.889Z,30.40
2023-01-11T07:29:48.595Z,25.10
2023-01-11T07:32:15.265Z,23.10
2023-01-11T07:34:41.954Z,22.50
2023-01-11T07:37:28.703Z,22.00
2023-01-11T07:39:56.153Z,21.70
2023-01-11T07:42:41.657Z,21.80
2023-01-11T07:45:08.991Z,21.30
2023-01-11T07:47:35.718Z,24.90
2023-01-11T07:50:02.419Z,30.50
2023-01-11T07:52:29.119Z,24.50
2023-01-11T07:54:55.880Z,26.90
2023-01-11T07:57:37.734Z,22.40
2023-01-11T08:00:05.047Z,23.50
2023-01-11T08:02:38.379Z,23.30
2023-01-11T08:05:05.957Z,22.70
2023-01-11T08:07:32.755Z,21.50
2023-01-11T08:09:59.486Z,29.70
2023-01-11T08:12:44.928Z,28.70
2023-01-11T08:15:14.322Z,25.50
2023-01-11T08:17:41.013Z,25.90
2023-01-11T08:20:09.003Z,33.90
2023-01-11T08:22:35.771Z,34.60
2023-01-11T08:25:02.488Z,34.30
2023-01-11T08:27:29.168Z,28.50
2023-01-11T08:29:55.862Z,30.20
2023-01-11T08:32:22.630Z,28.70
2023-01-11T08:34:49.450Z,35.50
2023-01-11T08:37:16.316Z,37.50
2023-01-11T08:39:43.346Z,27.20
2023-01-11T08:42:10.099Z,26.10
2023-01-11T08:44:36.943Z,33.00
2023-01-11T08:47:03.777Z,36.40
2023-01-11T08:49:30.821Z,33.00
2023-01-11T08:51:57.632Z,34.90
2023-01-11T08:54:25.091Z,37.00
2023-01-11T08:56:52.021Z,29.60
2023-01-11T08:59:20.156Z,29.30
2023-01-11T09:01:47.421Z,36.40
2023-01-11T09:04:24.109Z,30.80
2023-01-11T09:06:52.755Z,36.30
2023-01-11T09:09:19.586Z,28.00
2023-01-11T09:11:56.647Z,38.50
2023-01-11T09:14:25.067Z,31.90
2023-01-11T09:16:52.598Z,36.70
2023-01-11T09:19:19.347Z,29.80
2023-01-11T09:22:04.745Z,21.40
2023-01-11T09:24:31.516Z,44.80
2023-01-11T09:26:59.873Z,36.40
2023-01-11T09:29:27.053Z,45.30
2023-01-11T09:31:54.035Z,53.50
2023-01-11T09:34:21.309Z,35.50
2023-01-11T09:36:49.213Z,38.40
2023-01-11T09:39:19.714Z,37.90
2023-01-11T09:41:51.018Z,40.40
2023-01-11T09:44:21.458Z,40.20
2023-01-11T09:46:51.423Z,30.90
2023-01-11T09:49:25.162Z,31.50
2023-01-11T09:51:52.345Z,44.40
2023-01-11T09:54:23.314Z,39.10
2023-01-11T09:56:54.765Z,29.80
2023-01-11T09:59:44.891Z,34.60
2023-01-11T10:02:23.833Z,32.50
2023-01-11T10:05:19.690Z,37.80
2023-01-11T10:18:28.619Z,28.70
2023-01-11T10:18:29.105Z,29.30
2023-01-11T10:20:12.717Z,25.60
2023-01-11T10:22:43.348Z,35.20
2023-01-11T10:25:18.714Z,29.40
2023-01-11T10:27:55.544Z,34.40
2023-01-11T10:30:37.473Z,29.40
2023-01-11T10:33:14.968Z,37.30
2023-01-11T10:36:30.764Z,29.50
2023-01-11T10:39:20.656Z,36.30
2023-01-11T10:42:05.772Z,28.90
2023-01-11T10:44:47.501Z,40.80
2023-01-11T10:47:30.704Z,31.70
2023-01-11T10:50:00.641Z,31.20
2023-01-11T10:52:32.903Z,31.60
2023-01-11T10:55:03.068Z,35.60
2023-01-11T10:58:02.109Z,38.80
2023-01-11T11:00:37.569Z,42.00
2023-01-11T11:03:12.479Z,42.80
2023-01-11T11:05:58.077Z,30.50
2023-01-11T11:08:30.734Z,48.60
2023-01-11T11:11:13.668Z,34.10
2023-01-11T11:13:43.611Z,26.90
2023-01-11T11:16:25.123Z,36.50
2023-01-11T11:18:53.695Z,31.20
2023-01-11T11:21:31.117Z,32.10
2023-01-11T11:24:08.208Z,28.40
2023-01-11T11:26:41.578Z,31.00
2023-01-11T11:29:10.035Z,38.60
2023-01-11T11:31:38.569Z,33.20
2023-01-11T11:34:13.819Z,47.90
2023-01-11T11:36:42.528Z,35.30
2023-01-11T11:39:11.609Z,44.60
2023-01-11T11:41:56.482Z,35.00
2023-01-11T11:44:24.960Z,33.80
2023-01-11T11:47:06.753Z,43.40
2023-01-11T11:49:34.873Z,39.00
2023-01-11T11:52:02.591Z,32.50
2023-01-11T11:54:38.826Z,48.00
2023-01-11T11:57:16.037Z,39.80
2023-01-11T11:59:50.463Z,44.30
2023-01-11T12:02:30.839Z,42.90
2023-01-11T12:04:58.751Z,45.50
2023-01-11T12:07:34.392Z,39.70
2023-01-11T12:10:06.297Z,29.20
2023-01-11T12:12:34.218Z,33.00
2023-01-11T12:15:05.799Z,35.20
2023-01-11T12:17:32.663Z,26.30
2023-01-11T12:19:59.389Z,32.10
2023-01-11T12:22:28.089Z,37.00
2023-01-11T12:25:21.664Z,26.20
2023-01-11T12:28:38.163Z,35.40
2023-01-11T12:31:15.778Z,41.80
2023-01-11T12:34:13.676Z,37.00
2023-01-11T12:39:33.031Z,28.70
2023-01-11T12:42:24.864Z,37.30
2023-01-11T12:45:17.390Z,29.80
2023-01-11T12:48:08.592Z,33.50
2023-01-11T12:50:59.132Z,35.40
2023-01-11T12:54:00.457Z,29.00
2023-01-11T12:56:54.763Z,29.90
2023-01-11T12:59:33.249Z,32.40
2023-01-11T13:02:18.966Z,41.00
2023-01-11T13:05:13.827Z,42.30
2023-01-11T13:08:03.004Z,29.50
2023-01-11T13:10:45.062Z,30.30
2023-01-11T13:13:34.135Z,33.00
2023-01-11T13:16:14.284Z,34.80
2023-01-11T13:18:48.759Z,43.70
2023-01-11T13:21:26.522Z,39.40
2023-01-11T13:23:58.451Z,34.30
2023-01-11T13:26:29.721Z,38.60
2023-01-11T13:29:11.546Z,32.00
2023-01-11T13:31:39.333Z,34.20
2023-01-11T13:34:23.628Z,42.20
2023-01-11T13:37:02.978Z,34.50
2023-01-11T13:39:38.542Z,33.70
2023-01-11T13:42:12.206Z,41.20
2023-01-11T13:44:46.460Z,39.80
2023-01-11T13:47:23.118Z,40.30
2023-01-11T13:52:38.121Z,29.90
2023-01-11T13:55:11.200Z,27.70
2023-01-11T13:58:04.382Z,28.30
2023-01-11T14:00:52.810Z,36.90
2023-01-11T14:03:22.717Z,39.30
2023-01-11T14:06:14.662Z,33.10
2023-01-11T14:08:44.513Z,31.10
2023-01-11T14:11:53.352Z,30.80
2023-01-11T14:14:55.501Z,26.20
2023-01-11T14:18:00.360Z,32.40
2023-01-11T14:20:36.565Z,29.30
2023-01-11T14:23:20.517Z,29.90
2023-01-11T14:26:13.670Z,26.00
2023-01-11T14:28:59.843Z,29.70
2023-01-11T14:31:29.784Z,17.90
2023-01-11T14:34:27.757Z,26.00
2023-01-11T14:40:16.363Z,30.40
2023-01-11T14:43:06.376Z,29.90
2023-01-11T14:45:52.002Z,31.60
2023-01-11T14:48:40.833Z,43.80
2023-01-11T14:51:32.497Z,30.80
2023-01-11T14:54:07.744Z,37.70
2023-01-11T14:56:44.527Z,25.20
2023-01-11T14:59:30.287Z,29.20
2023-01-11T15:02:03.250Z,32.10
2023-01-11T15:04:36.282Z,24.10
2023-01-11T15:07:22.662Z,37.40
2023-01-11T15:09:50.798Z,32.10
2023-01-11T15:12:38.369Z,38.10
2023-01-11T15:15:06.738Z,37.50
2023-01-11T15:17:52.523Z,31.80
2023-01-11T15:20:20.331Z,32.80
2023-01-11T15:22:49.256Z,28.20
2023-01-11T15:25:26.953Z,25.00
2023-01-11T15:27:53.893Z,30.30
2023-01-11T15:30:29.980Z,30.40
2023-01-11T15:33:19.073Z,33.10
2023-01-11T15:35:55.138Z,36.00
2023-01-11T15:38:25.265Z,34.90
2023-01-11T15:40:54.232Z,37.50
2023-01-11T15:43:30.278Z,30.50
2023-01-11T15:46:54.867Z,31.70
2023-01-11T15:50:08.303Z,27.70
2023-01-11T15:53:10.613Z,31.90
2023-01-11T15:56:18.992Z,26.50
2023-01-11T15:59:23.239Z,32.10
2023-01-11T16:02:13.798Z,36.50
2023-01-11T16:04:41.092Z,30.70
2023-01-11T16:07:18.427Z,32.80
2023-01-11T16:10:03.845Z,35.20
2023-01-11T16:12:49.508Z,34.80
2023-01-11T16:15:49.358Z,29.20
2023-01-11T16:18:28.262Z,32.90
2023-01-11T16:21:03.833Z,31.20
2023-01-11T16:23:31.914Z,29.10
2023-01-11T16:25:58.671Z,30.60
2023-01-11T16:28:26.283Z,36.70
2023-01-11T16:31:01.764Z,32.70
2023-01-11T16:33:30.097Z,31.70
2023-01-11T16:36:07.483Z,29.40
2023-01-11T16:38:50.088Z,32.90
2023-01-11T16:41:16.926Z,41.20
2023-01-11T16:44:13.583Z,32.00
2023-01-11T16:46:46.595Z,29.30
2023-01-11T16:49:17.499Z,35.60
2023-01-11T16:51:45.480Z,33.50
2023-01-11T16:54:14.721Z,32.20
2023-01-11T16:56:46.951Z,31.90
2023-01-11T16:59:13.665Z,32.50
2023-01-11T17:01:49.082Z,35.60
2023-01-11T17:04:49.234Z,32.10
2023-01-11T17:07:23.589Z,37.00
2023-01-11T17:09:50.524Z,34.00
2023-01-11T17:12:22.460Z,39.20
2023-01-11T17:15:11.571Z,33.00
2023-01-11T17:17:38.465Z,46.80
2023-01-11T17:20:13.733Z,39.50
2023-01-11T17:22:40.583Z,44.90
2023-01-11T17:25:12.475Z,53.40
2023-01-11T17:27:45.318Z,51.70
2023-01-11T17:30:22.876Z,55.30
2023-01-11T17:32:53.914Z,48.80
2023-01-11T17:35:22.524Z,45.80
2023-01-11T17:37:53.476Z,46.50
2023-01-11T17:40:25.002Z,43.70
2023-01-11T17:43:10.467Z,69.10
2023-01-11T17:45:37.489Z,52.40
2023-01-11T17:48:13.091Z,51.70
2023-01-11T17:50:51.415Z,52.40
2023-01-11T17:53:22.247Z,42.00
2023-01-11T17:56:00.120Z,44.00
2023-01-11T17:58:36.841Z,48.90
2023-01-11T18:03:59.599Z,45.90
2023-01-11T18:06:50.847Z,48.10
2023-01-11T18:09:22.318Z,42.10
2023-01-11T18:11:50.024Z,48.50
2023-01-11T18:14:27.964Z,48.30
2023-01-11T18:17:07.189Z,66.20
2023-01-11T18:19:42.146Z,56.70
2023-01-11T18:22:29.805Z,60.60
2023-01-11T18:24:57.865Z,69.10
2023-01-11T18:27:26.479Z,62.70
2023-01-11T18:29:54.333Z,49.10
2023-01-11T18:32:22.029Z,49.40
2023-01-11T18:34:52.237Z,53.00
2023-01-11T18:37:19.047Z,47.90
2023-01-11T18:39:46.376Z,48.20
2023-01-11T18:42:16.089Z,48.60
2023-01-11T18:44:45.444Z,40.20
2023-01-11T18:47:15.320Z,57.80
2023-01-11T18:49:42.155Z,38.50
2023-01-11T18:52:08.855Z,35.80
2023-01-11T18:54:35.928Z,36.90
2023-01-11T18:57:02.676Z,43.10
2023-01-11T18:59:29.872Z,41.50
2023-01-11T19:02:15.762Z,39.50
2023-01-11T19:04:43.736Z,33.80
2023-01-11T19:07:10.997Z,39.20
2023-01-11T23:36:51.269Z,22.10
2023-01-11T23:39:20.967Z,22.90
2023-01-11T23:42:06.431Z,28.70
2023-01-11T23:44:33.188Z,31.70
2023-01-11T23:47:18.600Z,24.40
2023-01-11T23:49:45.635Z,25.80
2023-01-11T23:52:12.394Z,27.70
2023-01-11T23:54:39.141Z,29.80
2023-01-11T23:57:06.091Z,24.20
2023-01-11T23:59:32.883Z,30.10
